Johnstown, Pennsylvania
Current Conditions -  °F | °C
As of 3:54 AM on Sunday 26 Oct 2014 (Local Time) from KJST Reporting Station
Clear Clear  
Wind Chill: 42°   Ceiling: Unl
Heat Index: 48°   Visibility: 10mi
Dew Point: 30°   Wind: 14mph
Humidity: 50%   Direction: 290°WNW
Pressure: 29.75"   Gusts: NA
Location:  40.33°N, 78.92°W
Report Text: KJST 260754Z AUTO 29012KT 10SM CLR 09/M01 A2975 RMK AO2 SLP074 T00891011
Loading
Personal Weather Stations






























Interactive Weather Map New forecast layout! Learn more

10-Day Weather Forecast

Advertisements
Track Severe Weather on mobile